createdAt,value
2022-10-13T00:01:00.923Z,9.30
2022-10-13T00:03:29.120Z,9.07
2022-10-13T00:05:57.159Z,9.77
2022-10-13T00:08:26.298Z,8.43
2022-10-13T00:10:54.339Z,8.57
2022-10-13T00:13:22.358Z,8.03
2022-10-13T00:15:51.729Z,8.67
2022-10-13T00:18:20.039Z,8.53
2022-10-13T00:20:49.548Z,8.77
2022-10-13T00:23:18.609Z,8.67
2022-10-13T00:25:48.453Z,9.40
2022-10-13T00:28:17.701Z,8.23
2022-10-13T00:30:46.397Z,8.67
2022-10-13T00:33:15.841Z,8.07
2022-10-13T00:35:45.936Z,8.73
2022-10-13T00:38:14.640Z,9.17
2022-10-13T00:40:47.132Z,8.80
2022-10-13T00:43:20.193Z,8.57
2022-10-13T00:45:50.750Z,7.87
2022-10-13T00:48:22.100Z,8.93
2022-10-13T00:50:50.378Z,9.30
2022-10-13T00:53:20.853Z,8.50
2022-10-13T00:55:49.806Z,8.70
2022-10-13T00:58:19.920Z,8.93
2022-10-13T01:00:50.331Z,8.20
2022-10-13T01:03:21.198Z,8.80
2022-10-13T01:05:50.025Z,9.90
2022-10-13T01:08:19.637Z,9.60
2022-10-13T01:10:57.337Z,10.63
2022-10-13T01:13:35.590Z,9.80
2022-10-13T01:16:10.678Z,10.97
2022-10-13T01:18:46.423Z,11.67
2022-10-13T01:21:26.336Z,11.27
2022-10-13T01:24:15.514Z,12.00
2022-10-13T01:27:20.159Z,11.47
2022-10-13T01:30:16.214Z,12.20
2022-10-13T01:33:11.075Z,12.70
2022-10-13T01:35:58.323Z,11.97
2022-10-13T01:38:35.119Z,12.93
2022-10-13T01:41:11.142Z,13.73
2022-10-13T01:43:43.587Z,13.70
2022-10-13T01:46:17.457Z,13.83
2022-10-13T01:48:46.749Z,12.93
2022-10-13T01:51:23.178Z,12.87
2022-10-13T01:53:53.527Z,13.07
2022-10-13T01:56:21.958Z,13.90
2022-10-13T01:58:52.391Z,14.23
2022-10-13T02:01:39.131Z,14.17
2022-10-13T02:04:16.798Z,14.50
2022-10-13T02:06:49.146Z,14.03
2022-10-13T02:09:25.349Z,14.87
2022-10-13T02:12:00.566Z,14.60
2022-10-13T02:14:32.853Z,14.73
2022-10-13T02:17:06.362Z,15.23
2022-10-13T02:19:37.891Z,14.67
2022-10-13T02:22:07.386Z,15.07
2022-10-13T02:24:36.012Z,15.53
2022-10-13T02:27:05.919Z,14.73
2022-10-13T02:29:34.416Z,14.97
2022-10-13T02:32:03.855Z,15.63
2022-10-13T02:34:32.011Z,14.60
2022-10-13T02:37:00.005Z,15.60
2022-10-13T02:39:28.441Z,16.00
2022-10-13T02:41:56.395Z,15.63
2022-10-13T02:44:24.935Z,15.97
2022-10-13T02:46:52.888Z,16.43
2022-10-13T02:49:22.283Z,15.60
2022-10-13T02:51:51.412Z,16.07
2022-10-13T02:54:19.608Z,16.53
2022-10-13T02:56:47.613Z,16.43
2022-10-13T02:59:15.569Z,16.03
2022-10-13T03:01:44.656Z,15.70
2022-10-13T03:04:13.212Z,16.53
2022-10-13T03:06:42.615Z,16.10
2022-10-13T03:09:10.582Z,15.07
2022-10-13T03:11:39.030Z,15.57
2022-10-13T03:14:07.370Z,16.50
2022-10-13T03:16:35.388Z,16.13
2022-10-13T03:19:03.444Z,16.00
2022-10-13T03:21:31.942Z,14.60
2022-10-13T03:24:01.533Z,14.50
2022-10-13T03:26:29.538Z,14.27
2022-10-13T03:28:57.761Z,14.57
2022-10-13T03:31:26.609Z,14.23
2022-10-13T03:33:54.612Z,14.73
2022-10-13T03:36:22.687Z,15.27
2022-10-13T03:38:50.708Z,15.53
2022-10-13T03:41:20.859Z,13.87
2022-10-13T03:43:49.190Z,14.77
2022-10-13T03:46:19.238Z,15.20
2022-10-13T03:48:48.803Z,14.27
2022-10-13T03:51:20.917Z,14.93
2022-10-13T03:53:50.161Z,15.87
2022-10-13T03:56:21.858Z,14.20
2022-10-13T03:58:53.940Z,14.97
2022-10-13T04:01:22.980Z,13.80
2022-10-13T04:03:51.122Z,14.23
2022-10-13T04:06:19.469Z,14.53
2022-10-13T04:08:47.746Z,14.90
2022-10-13T04:11:17.478Z,14.20
2022-10-13T04:13:47.196Z,15.33
2022-10-13T04:16:17.319Z,14.10
2022-10-13T04:18:46.690Z,14.77
2022-10-13T04:21:16.213Z,14.97
2022-10-13T04:23:44.265Z,13.93
2022-10-13T04:26:18.343Z,15.03
2022-10-13T04:28:49.488Z,15.60
2022-10-13T04:31:17.644Z,15.83
2022-10-13T04:33:45.923Z,14.63
2022-10-13T04:36:15.833Z,15.90
2022-10-13T04:38:44.678Z,15.60
2022-10-13T04:41:13.671Z,16.50
2022-10-13T04:43:41.819Z,14.87
2022-10-13T04:46:16.523Z,15.77
2022-10-13T04:48:44.775Z,15.33
2022-10-13T04:51:14.887Z,17.10
2022-10-13T04:53:43.163Z,17.20
2022-10-13T04:56:12.968Z,14.77
2022-10-13T04:58:42.072Z,15.73
2022-10-13T05:01:18.845Z,15.67
2022-10-13T05:03:52.795Z,15.97
2022-10-13T05:06:22.968Z,15.47
2022-10-13T05:08:51.920Z,15.33
2022-10-13T05:11:20.801Z,14.37
2022-10-13T05:13:49.121Z,16.57
2022-10-13T05:16:19.908Z,15.53
2022-10-13T05:18:48.910Z,14.93
2022-10-13T05:21:19.365Z,15.03
2022-10-13T05:23:54.405Z,15.00
2022-10-13T05:26:24.711Z,14.83
2022-10-13T05:28:52.859Z,14.90
2022-10-13T05:31:24.363Z,14.30
2022-10-13T05:33:53.364Z,15.53
2022-10-13T05:36:23.484Z,13.37
2022-10-13T05:38:53.435Z,13.10
2022-10-13T05:41:22.220Z,14.37
2022-10-13T05:43:50.701Z,12.27
2022-10-13T05:46:18.879Z,13.83
2022-10-13T05:48:48.255Z,13.07
2022-10-13T05:51:20.444Z,13.03
2022-10-13T05:53:56.901Z,12.60
2022-10-13T05:56:31.812Z,11.87
2022-10-13T05:59:03.082Z,12.80
2022-10-13T06:01:34.089Z,13.10
2022-10-13T06:04:10.166Z,13.73
2022-10-13T06:06:38.809Z,13.00
2022-10-13T06:09:07.422Z,12.53
2022-10-13T06:11:35.406Z,12.03
2022-10-13T06:14:03.703Z,12.80
2022-10-13T06:16:31.641Z,12.73
2022-10-13T06:18:59.630Z,13.20
2022-10-13T06:21:29.380Z,11.87
2022-10-13T06:23:57.308Z,12.63
2022-10-13T06:26:25.426Z,12.10
2022-10-13T06:28:58.403Z,11.37
2022-10-13T06:31:28.110Z,11.73
2022-10-13T06:33:56.353Z,9.93
2022-10-13T06:36:24.574Z,11.33
2022-10-13T06:38:54.361Z,10.57
2022-10-13T06:41:22.444Z,10.67
2022-10-13T06:43:50.561Z,11.93
2022-10-13T06:46:18.673Z,10.53
2022-10-13T06:48:46.824Z,10.53
2022-10-13T06:51:15.415Z,10.20
2022-10-13T06:53:44.221Z,9.53
2022-10-13T06:56:14.423Z,10.00
2022-10-13T06:58:44.102Z,9.13
2022-10-13T07:01:15.357Z,8.47
2022-10-13T07:03:44.035Z,9.23
2022-10-13T07:06:16.115Z,9.87
2022-10-13T07:08:44.666Z,10.97
2022-10-13T07:11:17.468Z,10.00
2022-10-13T07:13:46.894Z,9.80
2022-10-13T07:16:15.583Z,8.90
2022-10-13T07:18:44.082Z,9.83
2022-10-13T07:21:12.813Z,9.27
2022-10-13T07:23:40.987Z,9.80
2022-10-13T07:26:10.002Z,9.43
2022-10-13T07:28:40.879Z,9.30
2022-10-13T07:31:12.016Z,10.80
2022-10-13T07:33:40.698Z,12.03
2022-10-13T07:36:11.449Z,11.37
2022-10-13T07:38:40.756Z,11.80
2022-10-13T07:41:11.811Z,11.20
2022-10-13T07:43:43.297Z,11.63
2022-10-13T07:46:14.400Z,11.60
2022-10-13T07:48:43.031Z,10.23
2022-10-13T07:51:13.967Z,11.20
2022-10-13T07:53:45.267Z,10.67
2022-10-13T07:56:15.147Z,11.50
2022-10-13T07:58:46.903Z,9.77
2022-10-13T08:01:16.471Z,9.67
2022-10-13T08:03:49.068Z,10.43
2022-10-13T08:06:18.737Z,10.10
2022-10-13T08:08:46.977Z,9.67
2022-10-13T08:11:17.280Z,9.68
2022-10-13T08:13:50.159Z,9.40
2022-10-13T08:16:18.177Z,10.00
2022-10-13T08:18:46.668Z,9.53
2022-10-13T08:24:06.451Z,8.82
2022-10-13T08:26:34.915Z,8.60
2022-10-13T08:31:53.210Z,7.55
2022-10-13T08:34:22.052Z,7.95
2022-10-13T08:36:53.029Z,7.88
2022-10-13T08:39:22.359Z,8.05
2022-10-13T08:41:51.428Z,8.82
2022-10-13T08:47:22.115Z,8.68
2022-10-13T08:49:50.312Z,8.18
2022-10-13T08:52:22.232Z,6.82
2022-10-13T08:54:51.583Z,7.60
2022-10-13T08:57:22.693Z,7.55
2022-10-13T08:59:54.284Z,8.25
2022-10-13T09:02:25.031Z,8.05
2022-10-13T09:04:54.658Z,7.03
2022-10-13T09:07:26.163Z,7.40
2022-10-13T09:09:55.975Z,7.85
2022-10-13T09:12:25.392Z,8.63
2022-10-13T09:15:05.328Z,7.78
2022-10-13T09:17:34.807Z,6.70
2022-10-13T09:20:07.678Z,7.03
2022-10-13T09:22:37.234Z,6.90
2022-10-13T09:25:21.731Z,7.55
2022-10-13T09:27:52.493Z,5.97
2022-10-13T09:30:32.069Z,6.85
2022-10-13T09:33:16.710Z,7.15
2022-10-13T09:35:47.467Z,6.72
2022-10-13T09:38:18.314Z,7.13
2022-10-13T09:40:58.927Z,6.72
2022-10-13T09:43:31.438Z,6.20
2022-10-13T09:46:02.849Z,6.13
2022-10-13T09:48:33.696Z,6.85
2022-10-13T09:51:02.888Z,6.72
2022-10-13T09:53:35.974Z,7.05
2022-10-13T09:56:18.550Z,6.55
2022-10-13T09:58:52.504Z,7.38
2022-10-13T10:01:27.061Z,7.22
2022-10-13T10:03:56.610Z,7.13
2022-10-13T10:06:27.777Z,7.05
2022-10-13T10:09:04.136Z,7.20
2022-10-13T10:11:36.247Z,7.47
2022-10-13T10:14:17.185Z,6.93
2022-10-13T10:16:51.953Z,6.45
2022-10-13T10:19:26.125Z,6.43
2022-10-13T10:22:04.326Z,6.32
2022-10-13T10:24:42.030Z,6.70
2022-10-13T10:29:56.260Z,6.70
2022-10-13T10:32:34.742Z,6.65
2022-10-13T10:35:11.369Z,6.80
2022-10-13T10:37:54.740Z,6.70
2022-10-13T10:40:36.310Z,6.45
2022-10-13T10:43:42.984Z,6.53
2022-10-13T10:46:18.457Z,8.27
2022-10-13T10:48:50.514Z,8.63
2022-10-13T10:51:19.986Z,7.93
2022-10-13T10:53:57.634Z,7.18
2022-10-13T10:56:33.775Z,6.40
2022-10-13T10:59:24.226Z,8.90
2022-10-13T11:02:03.289Z,8.95
2022-10-13T11:04:43.724Z,21.17
2022-10-13T11:07:16.328Z,7.05
2022-10-13T11:10:03.298Z,7.00
2022-10-13T11:12:50.249Z,7.50
2022-10-13T11:15:24.858Z,7.20
2022-10-13T11:17:53.095Z,7.05
2022-10-13T11:20:58.717Z,7.32
2022-10-13T11:23:34.787Z,6.93
2022-10-13T11:26:33.014Z,7.28
2022-10-13T11:29:01.368Z,7.07
2022-10-13T11:31:49.789Z,7.07
2022-10-13T11:34:31.156Z,6.85
2022-10-13T11:37:02.425Z,6.93
2022-10-13T11:40:01.444Z,7.80
2022-10-13T11:43:05.072Z,7.35
2022-10-13T11:45:56.998Z,7.20
2022-10-13T11:48:54.929Z,6.72
2022-10-13T11:51:32.374Z,6.68
2022-10-13T11:54:13.415Z,5.53
2022-10-13T11:56:49.121Z,6.00
2022-10-13T11:59:23.143Z,6.10
2022-10-13T12:01:57.128Z,5.80
2022-10-13T12:04:27.370Z,5.38
2022-10-13T12:06:59.377Z,5.53
2022-10-13T12:09:31.543Z,6.47
2022-10-13T12:12:02.913Z,6.32
2022-10-13T12:14:40.203Z,5.70
2022-10-13T12:17:23.734Z,6.30
2022-10-13T12:19:54.968Z,6.22
2022-10-13T12:22:23.164Z,7.40
2022-10-13T12:25:03.615Z,9.38
2022-10-13T12:27:33.823Z,9.63
2022-10-13T12:30:02.803Z,9.77
2022-10-13T12:32:33.911Z,7.22
2022-10-13T12:35:17.203Z,7.20
2022-10-13T12:37:45.932Z,6.53
2022-10-13T12:40:18.664Z,6.13
2022-10-13T12:42:47.593Z,6.53
2022-10-13T12:45:18.871Z,6.63
2022-10-13T12:47:52.280Z,6.45
2022-10-13T12:50:40.084Z,6.15
2022-10-13T12:53:20.006Z,6.10
2022-10-13T12:55:58.705Z,4.50
2022-10-13T12:58:30.331Z,4.93
2022-10-13T13:01:17.663Z,5.40
2022-10-13T13:03:46.175Z,6.05
2022-10-13T13:06:28.466Z,6.05
2022-10-13T13:09:30.612Z,6.18
2022-10-13T13:12:27.594Z,6.20
2022-10-13T13:14:56.648Z,5.53
2022-10-13T13:17:53.335Z,6.45
2022-10-13T13:20:26.253Z,6.85
2022-10-13T13:22:54.396Z,6.05
2022-10-13T13:25:22.514Z,6.00
2022-10-13T13:27:53.692Z,5.90
2022-10-13T13:30:23.569Z,5.75
2022-10-13T13:32:52.063Z,6.03
2022-10-13T13:35:20.531Z,5.47
2022-10-13T13:37:51.018Z,5.30
2022-10-13T13:40:22.797Z,6.05
2022-10-13T13:42:52.437Z,5.50
2022-10-13T13:45:22.613Z,4.80
2022-10-13T13:47:51.132Z,4.55
2022-10-13T13:50:23.581Z,4.13
2022-10-13T13:52:52.044Z,4.93
2022-10-13T13:55:20.217Z,4.80
2022-10-13T13:57:48.579Z,4.20
2022-10-13T14:00:19.688Z,4.22
2022-10-13T14:02:48.097Z,4.35
2022-10-13T14:05:18.635Z,3.10
2022-10-13T14:07:46.555Z,2.90
2022-10-13T14:10:14.787Z,3.72
2022-10-13T14:12:43.441Z,4.55
2022-10-13T14:15:12.546Z,4.55
2022-10-13T14:17:42.997Z,4.30
2022-10-13T14:20:13.213Z,4.43
2022-10-13T14:22:41.541Z,4.18
2022-10-13T14:25:10.872Z,3.78
2022-10-13T14:27:38.876Z,3.67
2022-10-13T14:30:08.089Z,3.80
2022-10-13T14:32:39.806Z,4.28
2022-10-13T14:35:09.917Z,4.60
2022-10-13T14:37:38.194Z,4.65
2022-10-13T14:40:07.505Z,3.67
2022-10-13T14:42:35.484Z,3.70
2022-10-13T14:45:03.576Z,3.33
2022-10-13T14:47:31.650Z,3.72
2022-10-13T14:50:01.317Z,4.60
2022-10-13T14:52:30.918Z,3.95
2022-10-13T14:54:58.953Z,3.42
2022-10-13T14:57:27.424Z,3.47
2022-10-13T15:00:00.888Z,5.88
2022-10-13T15:02:30.015Z,11.32
2022-10-13T15:04:58.192Z,11.55
2022-10-13T15:07:27.910Z,5.82
2022-10-13T15:10:06.386Z,4.55
2022-10-13T15:12:36.508Z,5.00
2022-10-13T15:15:06.317Z,4.97
2022-10-13T15:17:36.854Z,30.77
2022-10-13T15:20:05.579Z,5.72
2022-10-13T15:22:33.814Z,4.95
2022-10-13T15:25:04.620Z,5.18
2022-10-13T15:27:32.667Z,16.05
2022-10-13T15:30:00.866Z,8.45
2022-10-13T15:32:29.378Z,11.10
2022-10-13T15:34:57.423Z,5.85
2022-10-13T15:37:25.705Z,5.70
2022-10-13T15:39:57.445Z,4.95
2022-10-13T15:42:27.389Z,4.00
2022-10-13T15:45:11.539Z,4.30
2022-10-13T15:47:40.492Z,5.63
2022-10-13T15:50:10.094Z,6.13
2022-10-13T15:52:41.462Z,4.03
2022-10-13T15:55:10.158Z,8.38
2022-10-13T15:57:40.055Z,4.65
2022-10-13T16:00:10.380Z,6.30
2022-10-13T16:02:38.357Z,5.65
2022-10-13T16:05:07.873Z,4.40
2022-10-13T16:07:36.160Z,3.95
2022-10-13T16:10:04.404Z,3.65
2022-10-13T16:12:33.208Z,4.55
2022-10-13T16:15:02.668Z,4.80
2022-10-13T16:17:30.767Z,5.35
2022-10-13T16:19:58.817Z,5.13
2022-10-13T16:22:27.665Z,6.95
2022-10-13T16:24:56.346Z,4.93
2022-10-13T16:27:24.764Z,8.00
2022-10-13T16:29:52.982Z,7.03
2022-10-13T16:32:23.326Z,8.57
2022-10-13T16:34:51.486Z,6.13
2022-10-13T16:37:19.901Z,5.82
2022-10-13T16:39:51.657Z,7.47
2022-10-13T16:42:20.627Z,8.18
2022-10-13T16:44:48.783Z,7.30
2022-10-13T16:47:18.677Z,7.65
2022-10-13T16:49:48.751Z,6.07
2022-10-13T16:52:16.946Z,5.30
2022-10-13T16:54:45.079Z,5.47
2022-10-13T16:57:13.637Z,5.05
2022-10-13T16:59:42.115Z,5.25
2022-10-13T17:02:15.459Z,6.32
2022-10-13T17:04:47.954Z,6.05
2022-10-13T17:07:17.914Z,5.68
2022-10-13T17:09:46.331Z,7.03
2022-10-13T17:12:14.917Z,7.10
2022-10-13T17:14:43.362Z,7.70
2022-10-13T17:17:13.955Z,6.60
2022-10-13T17:19:42.219Z,8.23
2022-10-13T17:22:10.275Z,8.70
2022-10-13T17:24:42.958Z,7.72
2022-10-13T17:27:11.700Z,8.80
2022-10-13T17:29:39.765Z,8.32
2022-10-13T17:32:08.052Z,8.05
2022-10-13T17:34:37.484Z,7.82
2022-10-13T17:37:14.579Z,7.93
2022-10-13T17:39:45.555Z,7.90
2022-10-13T17:42:13.685Z,8.32
2022-10-13T17:44:42.843Z,7.70
2022-10-13T17:47:11.064Z,8.23
2022-10-13T17:49:40.254Z,9.75
2022-10-13T17:52:08.421Z,9.32
2022-10-13T17:54:36.444Z,12.87
2022-10-13T17:57:06.135Z,8.75
2022-10-13T17:59:34.131Z,8.87
2022-10-13T18:02:02.432Z,9.20
2022-10-13T18:04:30.999Z,10.93
2022-10-13T18:09:45.034Z,8.82
2022-10-13T18:12:14.503Z,9.27
2022-10-13T18:14:42.836Z,9.90
2022-10-13T18:17:11.116Z,10.85
2022-10-13T18:19:40.503Z,9.87
2022-10-13T18:22:08.671Z,9.45
2022-10-13T18:24:36.729Z,8.63
2022-10-13T18:27:05.946Z,9.27
2022-10-13T18:29:36.571Z,9.03
2022-10-13T18:32:06.092Z,9.37
2022-10-13T18:34:34.558Z,9.57
2022-10-13T18:37:02.610Z,9.60
2022-10-13T18:39:31.121Z,11.20
2022-10-13T18:41:59.575Z,10.70
2022-10-13T18:44:27.618Z,13.53
2022-10-13T18:46:57.477Z,13.53
2022-10-13T18:49:31.089Z,11.97
2022-10-13T18:52:00.015Z,10.47
2022-10-13T18:54:30.269Z,11.00
2022-10-13T18:56:59.289Z,10.30
2022-10-13T18:59:27.388Z,8.87
2022-10-13T19:01:57.446Z,8.13
2022-10-13T19:04:26.887Z,8.10
2022-10-13T19:06:54.887Z,7.57
2022-10-13T19:09:24.997Z,7.40
2022-10-13T19:11:53.193Z,7.40
2022-10-13T19:14:21.245Z,6.13
2022-10-13T19:16:49.284Z,6.93
2022-10-13T19:19:18.855Z,6.73
2022-10-13T19:21:46.836Z,7.13
2022-10-13T19:24:15.405Z,6.67
2022-10-13T19:26:43.442Z,6.97
2022-10-13T19:29:15.670Z,6.07
2022-10-13T19:31:44.205Z,6.47
2022-10-13T19:34:13.645Z,6.93
2022-10-13T19:36:44.820Z,7.40
2022-10-13T19:39:16.304Z,6.17
2022-10-13T19:41:45.302Z,6.67
2022-10-13T19:44:13.594Z,6.43
2022-10-13T19:46:42.376Z,10.30
2022-10-13T19:49:11.612Z,14.13
2022-10-13T19:51:42.957Z,8.63
2022-10-13T19:54:11.341Z,6.73
2022-10-13T19:56:39.528Z,6.03
2022-10-13T19:59:07.581Z,6.13
2022-10-13T20:01:39.999Z,6.50
2022-10-13T20:04:08.629Z,6.30
2022-10-13T20:06:37.161Z,7.03
2022-10-13T20:09:07.293Z,6.43
2022-10-13T20:11:36.176Z,5.77
2022-10-13T20:14:04.211Z,5.60
2022-10-13T20:16:32.422Z,5.23
2022-10-13T20:19:01.706Z,4.80
2022-10-13T20:21:30.418Z,4.60
2022-10-13T20:23:58.734Z,4.40
2022-10-13T20:26:28.411Z,4.37
2022-10-13T20:28:58.254Z,4.07
2022-10-13T20:31:27.146Z,4.70
2022-10-13T20:33:56.251Z,5.03
2022-10-13T20:36:26.896Z,4.97
2022-10-13T20:38:55.627Z,5.33
2022-10-13T20:41:25.634Z,4.20
2022-10-13T20:43:57.850Z,3.77
2022-10-13T20:46:26.265Z,3.97
2022-10-13T20:49:10.316Z,3.87
2022-10-13T20:51:38.858Z,4.00
2022-10-13T20:54:07.709Z,3.53
2022-10-13T20:56:35.895Z,3.20
2022-10-13T20:59:10.460Z,3.53
2022-10-13T21:01:39.096Z,3.73
2022-10-13T21:04:07.200Z,3.20
2022-10-13T21:06:36.033Z,2.80
2022-10-13T21:09:05.433Z,3.40
2022-10-13T21:11:33.403Z,3.40
2022-10-13T21:14:03.019Z,4.03
2022-10-13T21:16:32.517Z,3.87
2022-10-13T21:19:00.884Z,3.80
2022-10-13T21:21:31.953Z,3.67
2022-10-13T21:24:01.771Z,3.73
2022-10-13T21:26:31.504Z,4.53
2022-10-13T21:28:59.811Z,3.40
2022-10-13T21:31:28.286Z,3.20
2022-10-13T21:33:59.008Z,3.67
2022-10-13T21:36:29.292Z,3.40
2022-10-13T21:38:59.395Z,3.00
2022-10-13T21:41:28.881Z,3.40
2022-10-13T21:43:57.575Z,3.03
2022-10-13T21:46:28.544Z,3.57
2022-10-13T21:48:59.957Z,3.40
2022-10-13T21:51:30.420Z,3.90
2022-10-13T21:54:02.417Z,3.70
2022-10-13T21:56:33.785Z,4.10
2022-10-13T21:59:02.273Z,4.60
2022-10-13T22:01:30.804Z,4.10
2022-10-13T22:04:02.265Z,3.70
2022-10-13T22:06:32.057Z,4.17
2022-10-13T22:09:01.769Z,4.53
2022-10-13T22:11:31.728Z,4.80
2022-10-13T22:14:00.449Z,4.50
2022-10-13T22:16:30.471Z,4.73
2022-10-13T22:19:00.092Z,4.23
2022-10-13T22:21:30.001Z,4.50
2022-10-13T22:23:59.484Z,3.40
2022-10-13T22:26:29.688Z,3.90
2022-10-13T22:28:58.221Z,4.07
2022-10-13T22:31:26.684Z,3.50
2022-10-13T22:33:55.286Z,3.60
2022-10-13T22:36:26.321Z,2.90
2022-10-13T22:38:58.132Z,3.77
2022-10-13T22:41:26.417Z,3.33
2022-10-13T22:43:56.669Z,3.57
2022-10-13T22:46:27.615Z,3.63
2022-10-13T22:48:56.334Z,3.97
2022-10-13T22:51:27.907Z,4.20
2022-10-13T22:53:56.587Z,3.53
2022-10-13T22:56:26.201Z,3.57
2022-10-13T22:58:55.969Z,3.33
2022-10-13T23:01:26.079Z,3.57
2022-10-13T23:03:57.318Z,2.97
2022-10-13T23:06:28.196Z,3.17
2022-10-13T23:08:56.993Z,2.80
2022-10-13T23:11:24.972Z,3.00
2022-10-13T23:13:53.087Z,3.70
2022-10-13T23:16:23.770Z,3.40
2022-10-13T23:18:52.567Z,3.57
2022-10-13T23:21:24.567Z,3.13
2022-10-13T23:23:57.351Z,2.80
2022-10-13T23:26:25.688Z,2.70
2022-10-13T23:28:53.798Z,2.20
2022-10-13T23:31:22.124Z,2.40
2022-10-13T23:33:50.129Z,3.10
2022-10-13T23:36:21.510Z,2.43
2022-10-13T23:38:50.253Z,2.47
2022-10-13T23:41:19.733Z,2.20
2022-10-13T23:43:47.709Z,2.30
2022-10-13T23:46:15.763Z,2.17
2022-10-13T23:48:44.575Z,2.33
2022-10-13T23:51:15.199Z,2.77
2022-10-13T23:53:45.328Z,2.23
2022-10-13T23:56:14.199Z,2.70
2022-10-13T23:58:44.973Z,2.90
